createdAt,value
2017-05-14T00:00:18.815Z,15.76
2017-05-14T00:01:19.539Z,15.77
2017-05-14T00:02:20.542Z,15.80
2017-05-14T00:03:21.269Z,15.80
2017-05-14T00:04:21.996Z,15.73
2017-05-14T00:05:22.734Z,15.68
2017-05-14T00:06:23.452Z,15.62
2017-05-14T00:07:24.430Z,15.59
2017-05-14T00:08:25.158Z,15.72
2017-05-14T00:09:25.887Z,15.65
2017-05-14T00:10:26.638Z,15.68
2017-05-14T00:11:27.369Z,15.62
2017-05-14T00:12:28.344Z,15.64
2017-05-14T00:13:29.073Z,15.67
2017-05-14T00:14:30.056Z,15.64
2017-05-14T00:15:30.785Z,15.59
2017-05-14T00:16:31.511Z,15.58
2017-05-14T00:17:32.490Z,15.55
2017-05-14T00:18:33.218Z,15.44
2017-05-14T00:19:33.969Z,15.47
2017-05-14T00:20:34.695Z,15.39
2017-05-14T00:21:35.421Z,15.47
2017-05-14T00:22:36.400Z,15.44
2017-05-14T00:23:37.454Z,15.44
2017-05-14T00:24:38.108Z,15.46
2017-05-14T00:25:38.836Z,15.42
2017-05-14T00:26:39.566Z,15.39
2017-05-14T00:27:40.542Z,15.43
2017-05-14T00:28:41.271Z,15.37
2017-05-14T00:29:41.999Z,15.39
2017-05-14T00:30:42.729Z,15.39
2017-05-14T00:31:43.453Z,15.37
2017-05-14T00:32:44.431Z,15.40
2017-05-14T00:33:45.161Z,15.37
2017-05-14T00:34:45.887Z,15.28
2017-05-14T00:35:46.614Z,15.31
2017-05-14T00:36:47.342Z,15.27
2017-05-14T00:37:48.319Z,15.31
2017-05-14T00:38:49.041Z,15.31
2017-05-14T00:39:49.793Z,15.29
2017-05-14T00:40:50.521Z,15.37
2017-05-14T00:41:51.249Z,15.36
2017-05-14T00:42:52.229Z,15.33
2017-05-14T00:43:52.954Z,15.33
2017-05-14T00:44:53.706Z,15.19
2017-05-14T00:45:54.434Z,15.07
2017-05-14T00:46:55.159Z,15.21
2017-05-14T00:47:56.136Z,15.10
2017-05-14T00:48:56.862Z,15.11
2017-05-14T00:49:57.592Z,15.15
2017-05-14T00:50:58.320Z,15.15
2017-05-14T00:51:59.073Z,15.18
2017-05-14T00:53:00.050Z,15.19
2017-05-14T00:54:00.778Z,15.19
2017-05-14T00:55:01.511Z,15.25
2017-05-14T00:56:02.237Z,15.17
2017-05-14T00:57:02.965Z,15.25
2017-05-14T00:58:03.941Z,15.25
2017-05-14T00:59:04.667Z,15.17
2017-05-14T01:00:05.396Z,15.27
2017-05-14T01:01:06.122Z,15.21
2017-05-14T01:02:06.848Z,15.19
2017-05-14T01:03:07.825Z,15.29
2017-05-14T01:04:08.554Z,15.17
2017-05-14T01:05:09.283Z,15.21
2017-05-14T01:06:10.010Z,15.17
2017-05-14T01:07:10.741Z,15.17
2017-05-14T01:08:11.713Z,15.18
2017-05-14T01:09:12.465Z,15.09
2017-05-14T01:10:13.192Z,15.18
2017-05-14T01:11:13.919Z,15.17
2017-05-14T01:12:14.650Z,15.07
2017-05-14T01:13:15.629Z,15.00
2017-05-14T01:14:16.357Z,15.03
2017-05-14T01:15:17.084Z,15.04
2017-05-14T01:16:17.814Z,14.96
2017-05-14T01:17:18.540Z,14.94
2017-05-14T01:18:19.519Z,14.96
2017-05-14T01:19:20.244Z,14.94
2017-05-14T01:20:20.971Z,14.99
2017-05-14T01:21:21.697Z,15.00
2017-05-14T01:22:22.449Z,15.00
2017-05-14T01:23:23.428Z,14.94
2017-05-14T01:24:24.179Z,14.91
2017-05-14T01:25:24.909Z,14.89
2017-05-14T01:26:25.634Z,14.88
2017-05-14T01:27:26.363Z,14.88
2017-05-14T01:28:27.338Z,14.78
2017-05-14T01:29:28.068Z,14.77
2017-05-14T01:30:28.796Z,14.66
2017-05-14T01:31:29.523Z,14.62
2017-05-14T01:32:30.251Z,14.63
2017-05-14T01:33:31.232Z,14.63
2017-05-14T01:34:31.962Z,14.59
2017-05-14T01:35:32.713Z,14.60
2017-05-14T01:36:33.444Z,14.51
2017-05-14T01:37:34.168Z,14.45
2017-05-14T01:38:35.145Z,14.41
2017-05-14T01:39:35.876Z,14.41
2017-05-14T01:40:36.600Z,14.37
2017-05-14T01:41:37.331Z,14.44
2017-05-14T01:42:38.057Z,14.45
2017-05-14T01:43:39.035Z,14.37
2017-05-14T01:44:39.761Z,14.32
2017-05-14T01:45:40.488Z,14.25
2017-05-14T01:46:41.212Z,14.30
2017-05-14T01:47:41.942Z,14.23
2017-05-14T01:48:42.918Z,14.26
2017-05-14T01:49:43.647Z,14.25
2017-05-14T01:50:44.375Z,14.17
2017-05-14T01:51:45.100Z,14.22
2017-05-14T01:52:45.827Z,14.15
2017-05-14T01:53:46.806Z,14.12
2017-05-14T01:54:47.535Z,14.17
2017-05-14T01:55:48.285Z,14.10
2017-05-14T01:56:49.262Z,14.12
2017-05-14T01:57:49.991Z,14.11
2017-05-14T01:58:50.718Z,14.05
2017-05-14T01:59:51.446Z,14.03
2017-05-14T02:00:52.178Z,14.05
2017-05-14T02:01:53.202Z,14.04
2017-05-14T02:02:53.885Z,14.15
2017-05-14T02:03:54.615Z,14.04
2017-05-14T02:04:55.343Z,14.11
2017-05-14T02:05:56.097Z,14.04
2017-05-14T02:06:57.073Z,13.99
2017-05-14T02:07:57.799Z,13.86
2017-05-14T02:08:58.529Z,13.92
2017-05-14T02:09:59.255Z,13.95
2017-05-14T02:10:59.984Z,13.83
2017-05-14T02:12:00.966Z,13.90
2017-05-14T02:13:01.691Z,13.87
2017-05-14T02:14:02.422Z,13.78
2017-05-14T02:15:03.152Z,13.79
2017-05-14T02:16:03.874Z,13.83
2017-05-14T02:17:04.852Z,13.79
2017-05-14T02:18:05.581Z,13.77
2017-05-14T02:19:06.312Z,13.74
2017-05-14T02:20:07.039Z,13.78
2017-05-14T02:21:07.789Z,13.72
2017-05-14T02:22:08.767Z,13.83
2017-05-14T02:23:09.518Z,13.60
2017-05-14T02:24:10.245Z,13.77
2017-05-14T02:25:10.977Z,13.67
2017-05-14T02:26:11.701Z,13.62
2017-05-14T02:27:12.681Z,13.65
2017-05-14T02:28:13.407Z,13.70
2017-05-14T02:29:14.135Z,13.63
2017-05-14T02:30:14.865Z,13.63
2017-05-14T02:31:15.594Z,13.60
2017-05-14T02:32:16.572Z,13.59
2017-05-14T02:33:17.297Z,13.57
2017-05-14T02:34:18.054Z,13.52
2017-05-14T02:35:18.806Z,13.60
2017-05-14T02:36:19.533Z,13.57
2017-05-14T02:37:20.513Z,13.60
2017-05-14T02:38:21.237Z,13.49
2017-05-14T02:39:21.965Z,13.53
2017-05-14T02:40:22.697Z,13.60
2017-05-14T02:41:23.451Z,13.53
2017-05-14T02:42:24.425Z,13.50
2017-05-14T02:43:25.153Z,13.46
2017-05-14T02:44:25.879Z,13.46
2017-05-14T02:45:26.610Z,13.47
2017-05-14T02:46:27.338Z,13.44
2017-05-14T02:47:28.313Z,13.50
2017-05-14T02:48:29.042Z,13.42
2017-05-14T02:49:29.770Z,13.39
2017-05-14T02:50:30.502Z,13.47
2017-05-14T02:51:31.224Z,13.46
2017-05-14T02:52:32.229Z,13.41
2017-05-14T02:53:32.985Z,13.47
2017-05-14T02:54:33.711Z,13.47
2017-05-14T02:55:34.440Z,13.37
2017-05-14T02:56:35.169Z,13.37
2017-05-14T02:57:36.200Z,13.37
2017-05-14T02:58:36.875Z,13.38
2017-05-14T02:59:37.602Z,13.23
2017-05-14T03:00:38.330Z,13.31
2017-05-14T03:01:39.056Z,13.28
2017-05-14T03:02:40.035Z,13.27
2017-05-14T03:03:40.763Z,13.19
2017-05-14T03:04:41.488Z,13.18
2017-05-14T03:05:42.217Z,13.18
2017-05-14T03:06:42.947Z,13.12
2017-05-14T03:07:43.925Z,13.16
2017-05-14T03:08:44.650Z,13.16
2017-05-14T03:09:45.378Z,13.15
2017-05-14T03:10:46.105Z,13.15
2017-05-14T03:11:46.835Z,13.12
2017-05-14T03:12:47.815Z,13.13
2017-05-14T03:13:48.547Z,13.13
2017-05-14T03:14:49.275Z,13.08
2017-05-14T03:15:50.030Z,13.15
2017-05-14T03:16:50.757Z,13.12
2017-05-14T03:17:51.790Z,13.13
2017-05-14T03:18:52.543Z,13.18
2017-05-14T03:19:53.275Z,13.12
2017-05-14T03:20:54.002Z,13.12
2017-05-14T03:21:54.731Z,13.16
2017-05-14T03:22:55.739Z,13.15
2017-05-14T03:23:56.463Z,13.08
2017-05-14T03:24:57.194Z,13.09
2017-05-14T03:25:57.923Z,13.03
2017-05-14T03:26:58.657Z,13.05
2017-05-14T03:27:59.631Z,13.03
2017-05-14T03:29:00.358Z,13.01
2017-05-14T03:30:01.086Z,13.00
2017-05-14T03:31:01.816Z,13.04
2017-05-14T03:32:02.545Z,13.00
2017-05-14T03:33:03.520Z,13.03
2017-05-14T03:34:04.252Z,13.05
2017-05-14T03:35:04.982Z,13.01
2017-05-14T03:36:05.712Z,13.01
2017-05-14T03:37:06.444Z,13.03
2017-05-14T03:38:07.423Z,13.00
2017-05-14T03:39:08.154Z,13.05
2017-05-14T03:40:08.881Z,12.95
2017-05-14T03:41:09.614Z,12.94
2017-05-14T03:42:10.343Z,12.94
2017-05-14T03:43:11.323Z,12.94
2017-05-14T03:44:12.057Z,12.91
2017-05-14T03:45:12.783Z,13.03
2017-05-14T03:46:13.515Z,12.93
2017-05-14T03:47:14.244Z,13.00
2017-05-14T03:48:15.251Z,12.94
2017-05-14T03:49:15.983Z,13.01
2017-05-14T03:50:16.716Z,12.83
2017-05-14T03:51:17.443Z,12.80
2017-05-14T03:52:18.176Z,12.80
2017-05-14T03:53:19.157Z,12.86
2017-05-14T03:54:19.889Z,12.82
2017-05-14T03:55:20.646Z,12.87
2017-05-14T03:56:21.375Z,12.78
2017-05-14T03:57:22.106Z,12.78
2017-05-14T03:58:23.090Z,12.82
2017-05-14T03:59:23.823Z,12.85
2017-05-14T04:00:24.550Z,12.86
2017-05-14T04:01:25.279Z,12.78
2017-05-14T04:02:26.009Z,12.76
2017-05-14T04:03:27.015Z,12.76
2017-05-14T04:06:59.202Z,12.79
2017-05-14T04:07:59.931Z,12.78
2017-05-14T04:09:00.663Z,12.80
2017-05-14T04:10:01.415Z,12.79
2017-05-14T04:11:02.147Z,12.76
2017-05-14T04:12:03.126Z,12.80
2017-05-14T04:13:03.858Z,12.94
2017-05-14T04:14:04.589Z,12.82
2017-05-14T04:15:05.317Z,12.86
2017-05-14T04:16:06.041Z,12.94
2017-05-14T04:17:07.024Z,13.00
2017-05-14T04:18:07.755Z,12.98
2017-05-14T04:19:08.489Z,13.00
2017-05-14T04:20:09.219Z,12.97
2017-05-14T04:21:09.952Z,12.97
2017-05-14T04:22:10.936Z,12.97
2017-05-14T04:23:11.667Z,13.00
2017-05-14T04:24:12.400Z,13.00
2017-05-14T04:25:13.132Z,13.01
2017-05-14T04:26:13.865Z,13.03
2017-05-14T04:27:14.846Z,13.01
2017-05-14T04:28:15.579Z,13.01
2017-05-14T04:29:16.309Z,13.11
2017-05-14T04:30:17.041Z,13.13
2017-05-14T04:31:17.772Z,13.18
2017-05-14T04:32:18.755Z,13.12
2017-05-14T04:33:19.486Z,13.13
2017-05-14T04:34:20.219Z,13.18
2017-05-14T04:35:20.950Z,13.16
2017-05-14T04:36:21.683Z,13.22
2017-05-14T04:37:22.665Z,13.25
2017-05-14T04:38:23.398Z,13.30
2017-05-14T04:39:24.129Z,13.23
2017-05-14T04:40:24.864Z,13.28
2017-05-14T04:41:25.595Z,13.31
2017-05-14T04:42:26.579Z,13.35
2017-05-14T04:43:27.310Z,13.27
2017-05-14T04:44:28.041Z,13.23
2017-05-14T04:45:28.776Z,13.33
2017-05-14T04:46:29.506Z,13.35
2017-05-14T04:47:30.491Z,13.38
2017-05-14T04:48:31.220Z,13.37
2017-05-14T04:49:31.952Z,13.39
2017-05-14T04:50:32.686Z,13.41
2017-05-14T04:51:33.416Z,13.27
2017-05-14T04:52:34.424Z,13.35
2017-05-14T04:53:35.156Z,13.30
2017-05-14T04:54:35.889Z,13.35
2017-05-14T04:55:36.621Z,13.41
2017-05-14T04:56:37.356Z,13.52
2017-05-14T04:57:38.339Z,13.47
2017-05-14T04:58:39.071Z,13.49
2017-05-14T04:59:39.803Z,13.50
2017-05-14T05:00:40.534Z,13.60
2017-05-14T05:01:41.268Z,13.57
2017-05-14T05:02:42.295Z,13.70
2017-05-14T05:03:42.983Z,13.70
2017-05-14T05:04:43.715Z,13.83
2017-05-14T05:05:44.447Z,13.78
2017-05-14T05:06:45.181Z,13.89
2017-05-14T05:07:46.163Z,13.93
2017-05-14T05:08:46.919Z,14.00
2017-05-14T05:09:47.677Z,14.04
2017-05-14T05:10:48.409Z,14.08
2017-05-14T05:11:49.145Z,14.07
2017-05-14T05:12:50.131Z,14.08
2017-05-14T05:13:50.887Z,14.15
2017-05-14T05:14:51.624Z,14.20
2017-05-14T05:15:52.357Z,14.32
2017-05-14T05:16:53.115Z,14.28
2017-05-14T05:17:54.098Z,14.33
2017-05-14T05:18:54.829Z,14.43
2017-05-14T05:19:55.562Z,14.37
2017-05-14T05:20:56.302Z,14.45
2017-05-14T05:21:57.032Z,14.50
2017-05-14T05:22:58.016Z,14.50
2017-05-14T05:23:58.749Z,14.55
2017-05-14T05:24:59.481Z,14.60
2017-05-14T05:26:00.219Z,14.77
2017-05-14T05:27:00.953Z,14.70
2017-05-14T05:28:01.939Z,14.78
2017-05-14T05:29:02.696Z,14.78
2017-05-14T05:30:03.429Z,14.77
2017-05-14T05:31:04.167Z,14.82
2017-05-14T05:32:04.899Z,14.79
2017-05-14T05:33:05.881Z,14.77
2017-05-14T05:34:06.643Z,14.85
2017-05-14T05:35:07.400Z,14.79
2017-05-14T05:36:08.140Z,14.77
2017-05-14T05:37:08.872Z,14.86
2017-05-14T05:38:09.857Z,14.88
2017-05-14T05:39:10.615Z,14.86
2017-05-14T05:40:11.351Z,14.89
2017-05-14T05:41:12.083Z,14.85
2017-05-14T05:42:12.817Z,14.86
2017-05-14T05:43:13.803Z,14.82
2017-05-14T05:44:14.539Z,14.97
2017-05-14T05:45:15.273Z,14.94
2017-05-14T05:46:16.008Z,14.92
2017-05-14T05:47:16.746Z,15.04
2017-05-14T05:48:17.725Z,15.14
2017-05-14T05:49:18.460Z,15.21
2017-05-14T05:50:19.196Z,15.28
2017-05-14T05:51:19.932Z,15.25
2017-05-14T05:52:20.666Z,15.39
2017-05-14T05:53:21.653Z,15.39
2017-05-14T05:54:22.387Z,15.52
2017-05-14T05:55:23.121Z,15.47
2017-05-14T05:56:23.855Z,15.36
2017-05-14T05:57:24.585Z,15.57
2017-05-14T05:58:25.570Z,15.39
2017-05-14T05:59:26.305Z,15.54
2017-05-14T06:00:27.038Z,15.49
2017-05-14T06:01:27.772Z,15.58
2017-05-14T06:02:28.519Z,15.52
2017-05-14T06:03:29.521Z,15.59
2017-05-14T06:04:30.254Z,15.59
2017-05-14T06:05:30.987Z,15.59
2017-05-14T06:06:31.722Z,15.73
2017-05-14T06:07:32.456Z,15.77
2017-05-14T06:08:33.439Z,15.79
2017-05-14T06:09:34.374Z,15.88
2017-05-14T06:10:35.112Z,15.79
2017-05-14T06:11:35.846Z,15.95
2017-05-14T06:12:36.587Z,15.97
2017-05-14T06:17:24.350Z,16.31
2017-05-14T06:18:25.084Z,16.35
2017-05-14T06:19:25.844Z,16.29
2017-05-14T06:20:26.580Z,16.32
2017-05-14T06:21:27.313Z,16.32
2017-05-14T06:22:28.301Z,16.36
2017-05-14T06:23:29.034Z,16.36
2017-05-14T06:24:29.770Z,16.38
2017-05-14T06:25:30.503Z,16.47
2017-05-14T06:26:31.239Z,16.54
2017-05-14T06:27:32.250Z,16.53
2017-05-14T06:28:32.982Z,16.53
2017-05-14T06:29:33.741Z,16.66
2017-05-14T06:30:34.478Z,16.53
2017-05-14T06:31:35.215Z,16.53
2017-05-14T06:32:36.202Z,16.53
2017-05-14T06:33:36.937Z,16.51
2017-05-14T06:34:37.671Z,16.61
2017-05-14T06:35:38.407Z,16.72
2017-05-14T06:36:39.141Z,16.84
2017-05-14T06:37:40.127Z,16.89
2017-05-14T06:38:40.862Z,16.84
2017-05-14T06:39:41.599Z,16.91
2017-05-14T06:40:42.340Z,16.99
2017-05-14T06:41:43.093Z,16.97
2017-05-14T06:42:44.080Z,17.04
2017-05-14T06:43:44.814Z,17.20
2017-05-14T06:44:45.552Z,17.20
2017-05-14T06:45:46.285Z,17.36
2017-05-14T06:46:47.022Z,17.36
2017-05-14T06:47:48.008Z,17.34
2017-05-14T06:48:48.745Z,17.46
2017-05-14T06:49:49.481Z,17.49
2017-05-14T06:50:50.242Z,17.52
2017-05-14T06:51:50.976Z,17.48
2017-05-14T06:52:51.966Z,17.63
2017-05-14T06:53:52.703Z,17.82
2017-05-14T06:54:53.441Z,17.68
2017-05-14T06:55:54.179Z,17.71
2017-05-14T06:56:54.917Z,17.76
2017-05-14T06:57:55.904Z,17.79
2017-05-14T06:58:56.641Z,17.72
2017-05-14T06:59:57.379Z,17.80
2017-05-14T07:00:58.118Z,17.89
2017-05-14T07:01:58.858Z,17.94
2017-05-14T07:02:59.848Z,18.13
2017-05-14T07:04:00.585Z,18.29
2017-05-14T07:05:01.322Z,18.45
2017-05-14T07:06:02.059Z,18.44
2017-05-14T07:07:02.800Z,18.37
2017-05-14T07:08:03.787Z,18.50
2017-05-14T07:09:04.526Z,18.65
2017-05-14T07:10:05.268Z,18.73
2017-05-14T07:11:06.009Z,18.75
2017-05-14T07:12:07.081Z,19.09
2017-05-14T07:15:43.508Z,19.07
2017-05-14T07:19:15.449Z,19.19
2017-05-14T07:20:16.194Z,19.04
2017-05-14T07:21:17.188Z,19.08
2017-05-14T07:22:17.955Z,19.15
2017-05-14T07:23:18.696Z,19.24
2017-05-14T07:24:19.435Z,19.19
2017-05-14T07:25:20.178Z,19.12
2017-05-14T07:26:21.170Z,18.88
2017-05-14T07:27:21.914Z,18.71
2017-05-14T07:28:22.656Z,18.83
2017-05-14T07:29:23.399Z,18.83
2017-05-14T07:30:24.167Z,18.83
2017-05-14T07:31:25.157Z,18.93
2017-05-14T07:32:25.900Z,18.92
2017-05-14T07:33:26.648Z,18.88
2017-05-14T07:34:27.380Z,19.08
2017-05-14T07:35:28.123Z,19.15
2017-05-14T07:36:29.115Z,19.15
2017-05-14T07:37:29.858Z,19.16
2017-05-14T07:38:30.600Z,19.33
2017-05-14T07:39:31.343Z,19.41
2017-05-14T07:40:32.109Z,19.39
2017-05-14T07:41:33.125Z,19.36
2017-05-14T07:42:33.865Z,19.48
2017-05-14T07:46:06.098Z,19.62
2017-05-14T07:47:06.844Z,19.81
2017-05-14T07:48:07.588Z,19.77
2017-05-14T07:49:08.359Z,19.99
2017-05-14T07:50:09.107Z,20.09
2017-05-14T07:51:10.103Z,19.84
2017-05-14T07:52:10.850Z,19.91
2017-05-14T07:53:11.596Z,19.86
2017-05-14T07:54:12.346Z,19.91
2017-05-14T07:55:13.091Z,20.14
2017-05-14T07:56:14.086Z,19.94
2017-05-14T07:57:14.835Z,20.07
2017-05-14T07:58:15.580Z,20.10
2017-05-14T07:59:16.329Z,20.06
2017-05-14T08:00:17.076Z,20.55
2017-05-14T08:01:18.075Z,20.69
2017-05-14T08:02:18.849Z,20.88
2017-05-14T08:03:19.595Z,20.43
2017-05-14T08:04:20.342Z,20.48
2017-05-14T08:05:21.091Z,20.70
2017-05-14T08:06:22.086Z,20.97
2017-05-14T08:07:22.836Z,21.32
2017-05-14T08:08:23.584Z,21.29
2017-05-14T08:09:24.333Z,21.32
2017-05-14T08:10:25.107Z,21.51
2017-05-14T08:11:26.104Z,21.76
2017-05-14T08:12:26.855Z,22.07
2017-05-14T08:13:27.604Z,22.14
2017-05-14T08:14:28.352Z,22.35
2017-05-14T08:15:29.098Z,22.33
2017-05-14T08:16:30.100Z,22.59
2017-05-14T08:17:30.846Z,22.87
2017-05-14T08:18:31.595Z,23.06
2017-05-14T08:19:32.346Z,23.25
2017-05-14T08:20:33.092Z,23.41
2017-05-14T08:21:34.092Z,23.55
2017-05-14T08:22:34.844Z,23.25
2017-05-14T08:23:35.597Z,22.59
2017-05-14T08:24:36.371Z,22.43
2017-05-14T08:25:37.116Z,22.07
2017-05-14T08:26:38.115Z,21.69
2017-05-14T08:27:38.890Z,21.75
2017-05-14T08:28:39.634Z,21.54
2017-05-14T08:34:43.055Z,21.45
2017-05-14T08:35:43.823Z,21.21
2017-05-14T08:36:44.593Z,21.06
2017-05-14T08:37:45.338Z,21.14
2017-05-14T08:38:46.081Z,20.95
2017-05-14T08:39:47.099Z,21.14
2017-05-14T08:40:47.844Z,21.42
2017-05-14T08:41:48.584Z,21.06
2017-05-14T08:42:49.351Z,21.12
2017-05-14T08:43:50.094Z,21.20
2017-05-14T08:44:51.090Z,21.17
2017-05-14T08:45:51.833Z,20.88
2017-05-14T08:46:52.576Z,21.21
2017-05-14T08:47:53.318Z,21.52
2017-05-14T08:48:54.061Z,21.67
2017-05-14T08:49:55.056Z,21.69
2017-05-14T08:50:55.800Z,21.43
2017-05-14T08:51:56.541Z,21.61
2017-05-14T08:52:57.284Z,21.46
2017-05-14T08:53:58.027Z,21.33
2017-05-14T08:54:59.022Z,21.18
2017-05-14T08:58:30.980Z,21.73
2017-05-14T08:59:31.728Z,21.91
2017-05-14T09:00:32.774Z,21.93
2017-05-14T09:01:33.520Z,21.62
2017-05-14T09:02:34.262Z,21.79
2017-05-14T09:03:35.013Z,21.89
2017-05-14T09:04:35.763Z,22.28
2017-05-14T09:05:36.761Z,22.73
2017-05-14T09:06:37.507Z,22.69
2017-05-14T09:07:38.256Z,22.54
2017-05-14T09:08:39.007Z,22.59
2017-05-14T09:09:39.755Z,22.70
2017-05-14T09:10:40.758Z,23.02
2017-05-14T09:11:41.506Z,23.20
2017-05-14T09:12:42.256Z,23.05
2017-05-14T09:13:43.004Z,23.23
2017-05-14T09:14:44.083Z,23.41
2017-05-14T09:15:45.015Z,23.55
2017-05-14T09:16:45.762Z,23.77
2017-05-14T09:17:46.511Z,23.87
2017-05-14T09:18:47.259Z,23.95
2017-05-14T09:19:48.010Z,24.18
2017-05-14T09:20:49.011Z,24.32
2017-05-14T09:21:49.768Z,24.38
2017-05-14T09:22:50.544Z,24.42
2017-05-14T09:23:51.299Z,24.42
2017-05-14T09:24:52.048Z,24.17
2017-05-14T09:25:53.053Z,24.08
2017-05-14T09:26:53.835Z,23.93
2017-05-14T09:27:54.592Z,24.11
2017-05-14T09:28:55.345Z,24.16
2017-05-14T09:29:56.106Z,24.16
2017-05-14T09:30:57.115Z,24.76
2017-05-14T09:31:57.874Z,25.41
2017-05-14T09:32:58.635Z,26.21
2017-05-14T09:33:59.393Z,26.02
2017-05-14T09:35:00.183Z,24.53
2017-05-14T09:36:01.218Z,23.84
2017-05-14T09:37:01.974Z,23.95
2017-05-14T09:38:02.735Z,24.26
2017-05-14T09:39:03.523Z,24.45
2017-05-14T09:40:04.290Z,24.60
2017-05-14T09:41:05.299Z,24.89
2017-05-14T09:42:06.122Z,24.29
2017-05-14T09:43:06.876Z,24.13
2017-05-14T09:44:07.635Z,24.05
2017-05-14T09:45:08.396Z,23.98
2017-05-14T09:46:09.406Z,24.29
2017-05-14T09:47:10.170Z,24.48
2017-05-14T09:48:10.928Z,24.86
2017-05-14T09:49:11.685Z,24.76
2017-05-14T09:50:12.472Z,24.80
2017-05-14T09:51:13.483Z,24.47
2017-05-14T09:52:14.237Z,24.65
2017-05-14T09:53:15.021Z,24.70
2017-05-14T09:54:15.797Z,24.08
2017-05-14T09:55:16.614Z,23.95
2017-05-14T09:56:17.619Z,23.74
2017-05-14T09:57:18.379Z,24.32
2017-05-14T09:58:19.134Z,24.36
2017-05-14T09:59:19.892Z,24.73
2017-05-14T10:00:20.677Z,24.74
2017-05-14T10:01:21.687Z,24.35
2017-05-14T10:02:22.442Z,24.39
2017-05-14T10:03:23.197Z,24.33
2017-05-14T10:04:24.220Z,24.88
2017-05-14T10:05:25.008Z,24.42
2017-05-14T10:06:26.015Z,24.17
2017-05-14T10:07:26.774Z,23.99
2017-05-14T10:08:27.531Z,24.20
2017-05-14T10:09:28.288Z,24.39
2017-05-14T10:10:29.083Z,24.24
2017-05-14T10:11:30.095Z,23.92
2017-05-14T10:12:30.854Z,23.80
2017-05-14T10:13:31.609Z,23.66
2017-05-14T10:14:32.367Z,23.56
2017-05-14T10:15:33.117Z,23.08
2017-05-14T10:16:34.119Z,22.85
2017-05-14T10:17:34.865Z,22.45
2017-05-14T10:18:35.634Z,22.47
2017-05-14T10:19:36.381Z,22.22
2017-05-14T10:20:37.146Z,22.00
2017-05-14T10:21:38.143Z,21.93
2017-05-14T10:22:38.886Z,21.73
2017-05-14T10:23:39.629Z,21.54
2017-05-14T10:24:40.415Z,21.48
2017-05-14T10:25:41.160Z,21.39
2017-05-14T10:26:42.208Z,21.33
2017-05-14T10:27:42.952Z,21.57
2017-05-14T10:28:43.720Z,21.67
2017-05-14T10:29:44.463Z,21.80
2017-05-14T10:30:45.202Z,22.33
2017-05-14T10:31:46.205Z,22.90
2017-05-14T10:32:46.977Z,23.21
2017-05-14T10:33:47.759Z,23.39
2017-05-14T10:34:48.506Z,23.54
2017-05-14T10:35:49.250Z,23.59
2017-05-14T10:36:50.246Z,23.78
2017-05-14T10:37:50.995Z,24.43
2017-05-14T10:38:51.766Z,24.70
2017-05-14T10:39:52.539Z,24.66
2017-05-14T10:40:53.288Z,24.80
2017-05-14T10:41:54.285Z,24.57
2017-05-14T10:42:55.036Z,24.69
2017-05-14T10:43:55.801Z,24.60
2017-05-14T10:44:56.554Z,24.88
2017-05-14T10:45:57.309Z,25.08
2017-05-14T10:46:58.313Z,25.50
2017-05-14T10:47:59.068Z,25.51
2017-05-14T10:48:59.842Z,25.48
2017-05-14T10:50:00.883Z,25.96
2017-05-14T10:51:01.899Z,26.10
2017-05-14T10:52:02.907Z,26.34
2017-05-14T10:53:03.670Z,26.36
2017-05-14T10:54:04.433Z,26.89
2017-05-14T10:55:05.186Z,26.78
2017-05-14T10:56:05.958Z,26.31
2017-05-14T10:57:06.960Z,25.40
2017-05-14T10:58:07.756Z,25.32
2017-05-14T10:59:08.513Z,25.28
2017-05-14T11:00:09.276Z,24.81
2017-05-14T11:01:10.028Z,24.80
2017-05-14T11:02:11.086Z,25.16
2017-05-14T11:03:11.840Z,25.06
2017-05-14T11:04:12.600Z,24.93
2017-05-14T11:05:13.380Z,24.47
2017-05-14T11:06:14.131Z,23.92
2017-05-14T11:07:15.131Z,24.14
2017-05-14T11:08:15.881Z,24.28
2017-05-14T11:09:16.637Z,24.05
2017-05-14T11:10:17.394Z,24.36
2017-05-14T11:11:18.145Z,24.43
2017-05-14T11:12:19.153Z,24.40
2017-05-14T11:13:19.921Z,24.39
2017-05-14T11:14:20.672Z,24.17
2017-05-14T11:15:21.430Z,24.28
2017-05-14T11:16:22.184Z,24.29
2017-05-14T11:17:23.188Z,24.61
2017-05-14T11:18:23.940Z,24.14
2017-05-14T11:19:24.701Z,23.96
2017-05-14T11:20:25.487Z,24.21
2017-05-14T11:21:26.241Z,24.86
2017-05-14T11:22:27.243Z,25.33
2017-05-14T11:23:28.002Z,25.29
2017-05-14T11:24:28.789Z,25.53
2017-05-14T11:25:29.552Z,25.07
2017-05-14T11:26:30.316Z,24.98
2017-05-14T11:27:31.343Z,24.63
2017-05-14T11:28:32.104Z,24.88
2017-05-14T11:29:32.856Z,25.10
2017-05-14T11:30:33.619Z,25.29
2017-05-14T11:31:34.374Z,25.77
2017-05-14T11:32:35.377Z,25.81
2017-05-14T11:33:36.134Z,25.68
2017-05-14T11:34:36.887Z,25.59
2017-05-14T11:35:37.651Z,25.65
2017-05-14T11:36:38.408Z,26.03
2017-05-14T11:37:39.415Z,26.34
2017-05-14T11:38:40.194Z,26.70
2017-05-14T11:39:40.948Z,26.40
2017-05-14T11:40:41.706Z,26.43
2017-05-14T11:41:42.464Z,25.78
2017-05-14T11:42:43.496Z,25.90
2017-05-14T11:43:44.281Z,25.54
2017-05-14T11:44:45.040Z,25.32
2017-05-14T11:45:45.798Z,25.55
2017-05-14T11:46:46.557Z,25.25
2017-05-14T11:47:47.567Z,24.93
2017-05-14T11:48:48.321Z,24.85
2017-05-14T11:49:49.106Z,24.47
2017-05-14T11:50:49.863Z,24.92
2017-05-14T11:51:50.621Z,25.26
2017-05-14T11:52:51.626Z,25.08
2017-05-14T11:53:52.406Z,24.57
2017-05-14T11:54:53.159Z,24.17
2017-05-14T11:55:53.911Z,23.95
2017-05-14T11:56:54.666Z,24.05
2017-05-14T11:57:55.672Z,23.80
2017-05-14T11:58:56.422Z,23.59
2017-05-14T11:59:57.197Z,23.40
2017-05-14T12:00:57.940Z,23.32
2017-05-14T12:01:58.684Z,23.18
2017-05-14T12:02:59.677Z,23.08
2017-05-14T12:04:00.422Z,23.08
2017-05-14T12:05:01.188Z,22.83
2017-05-14T12:06:01.929Z,22.60
2017-05-14T12:07:02.672Z,22.29
2017-05-14T12:08:03.665Z,22.17
2017-05-14T12:09:04.407Z,22.20
2017-05-14T12:10:05.146Z,22.04
2017-05-14T12:11:05.890Z,21.95
2017-05-14T12:12:06.622Z,21.75
2017-05-14T12:13:07.613Z,21.35
2017-05-14T12:14:08.357Z,20.41
2017-05-14T12:15:09.097Z,19.69
2017-05-14T12:16:09.836Z,19.18
2017-05-14T12:17:10.601Z,18.81
2017-05-14T12:18:11.594Z,18.60
2017-05-14T12:19:12.333Z,18.56
2017-05-14T12:20:13.077Z,18.31
2017-05-14T12:21:13.821Z,18.33
2017-05-14T12:22:14.564Z,18.20
2017-05-14T12:23:15.559Z,18.03
2017-05-14T12:24:16.294Z,18.01
2017-05-14T12:25:17.037Z,18.00
2017-05-14T12:26:17.782Z,17.83
2017-05-14T12:27:18.521Z,17.74
2017-05-14T12:28:19.513Z,17.89
2017-05-14T12:29:20.255Z,17.90
2017-05-14T12:30:20.994Z,17.89
2017-05-14T12:31:21.735Z,17.85
2017-05-14T12:32:22.499Z,17.90
2017-05-14T12:33:23.490Z,17.97
2017-05-14T12:34:24.489Z,18.08
2017-05-14T12:35:25.230Z,18.04
2017-05-14T12:36:25.970Z,18.22
2017-05-14T12:37:26.707Z,18.35
2017-05-14T12:38:27.723Z,18.50
2017-05-14T12:39:28.464Z,18.70
2017-05-14T12:40:29.209Z,18.80
2017-05-14T12:41:29.944Z,18.75
2017-05-14T12:42:30.688Z,18.99
2017-05-14T12:43:31.681Z,19.15
2017-05-14T12:44:32.425Z,19.15
2017-05-14T12:45:33.169Z,19.44
2017-05-14T12:46:33.914Z,19.79
2017-05-14T12:47:34.660Z,20.32
2017-05-14T12:48:35.653Z,20.60
2017-05-14T12:49:36.398Z,20.82
2017-05-14T12:50:37.144Z,21.14
2017-05-14T12:51:37.895Z,21.58
2017-05-14T12:52:38.638Z,21.93
2017-05-14T12:53:39.657Z,22.38
2017-05-14T12:54:40.404Z,22.47
2017-05-14T12:55:41.149Z,22.53
2017-05-14T12:56:41.898Z,22.83
2017-05-14T12:57:42.645Z,22.83
2017-05-14T12:58:43.642Z,22.91
2017-05-14T12:59:44.383Z,22.98
2017-05-14T13:00:45.127Z,22.72
2017-05-14T13:01:45.899Z,22.88
2017-05-14T13:02:46.641Z,22.88
2017-05-14T13:03:47.632Z,22.63
2017-05-14T13:04:48.378Z,22.91
2017-05-14T13:05:49.125Z,23.24
2017-05-14T13:06:49.876Z,23.20
2017-05-14T13:07:50.646Z,23.43
2017-05-14T13:08:51.642Z,23.50
2017-05-14T13:09:52.388Z,23.66
2017-05-14T13:10:53.133Z,23.44
2017-05-14T13:11:53.877Z,23.10
2017-05-14T13:12:54.647Z,22.45
2017-05-14T13:13:55.635Z,22.17
2017-05-14T13:14:56.378Z,22.17
2017-05-14T13:15:57.123Z,22.11
2017-05-14T13:16:57.862Z,22.30
2017-05-14T13:17:58.602Z,22.00
2017-05-14T13:18:59.646Z,22.11
2017-05-14T13:20:00.416Z,21.91
2017-05-14T13:21:01.155Z,21.85
2017-05-14T13:22:01.900Z,21.64
2017-05-14T13:23:02.641Z,21.60
2017-05-14T13:24:03.633Z,21.64